sensor_id;sensor_type;location;lat;lon;timestamp;P1;durP1;ratioP1;P2;durP2;ratioP2
54921;SDS011;40824;45.116;21.296;2023-07-13T00:00:24;11.80;;;6.57;;
54921;SDS011;40824;45.116;21.296;2023-07-13T00:02:50;13.00;;;6.60;;
54921;SDS011;40824;45.116;21.296;2023-07-13T00:05:20;14.00;;;6.18;;
54921;SDS011;40824;45.116;21.296;2023-07-13T00:07:46;12.68;;;7.07;;
54921;SDS011;40824;45.116;21.296;2023-07-13T00:10:13;14.77;;;6.93;;
54921;SDS011;40824;45.116;21.296;2023-07-13T00:12:39;15.25;;;6.25;;
54921;SDS011;40824;45.116;21.296;2023-07-13T00:15:07;15.23;;;7.22;;
54921;SDS011;40824;45.116;21.296;2023-07-13T00:17:33;12.32;;;7.90;;
54921;SDS011;40824;45.116;21.296;2023-07-13T00:19:59;21.67;;;7.90;;
54921;SDS011;40824;45.116;21.296;2023-07-13T00:22:25;14.05;;;7.45;;
54921;SDS011;40824;45.116;21.296;2023-07-13T00:24:52;23.08;;;8.35;;
54921;SDS011;40824;45.116;21.296;2023-07-13T00:27:18;22.13;;;8.63;;
54921;SDS011;40824;45.116;21.296;2023-07-13T00:29:44;19.80;;;8.85;;
54921;SDS011;40824;45.116;21.296;2023-07-13T00:32:10;16.58;;;8.30;;
54921;SDS011;40824;45.116;21.296;2023-07-13T00:34:37;17.75;;;8.88;;
54921;SDS011;40824;45.116;21.296;2023-07-13T00:37:04;19.13;;;10.18;;
54921;SDS011;40824;45.116;21.296;2023-07-13T00:39:31;20.15;;;9.23;;
54921;SDS011;40824;45.116;21.296;2023-07-13T00:41:57;17.38;;;8.63;;
54921;SDS011;40824;45.116;21.296;2023-07-13T00:44:23;15.15;;;8.20;;
54921;SDS011;40824;45.116;21.296;2023-07-13T00:46:49;14.98;;;8.27;;
54921;SDS011;40824;45.116;21.296;2023-07-13T00:49:16;20.20;;;8.90;;
54921;SDS011;40824;45.116;21.296;2023-07-13T00:51:45;17.27;;;8.98;;
54921;SDS011;40824;45.116;21.296;2023-07-13T00:54:14;23.52;;;9.30;;
54921;SDS011;40824;45.116;21.296;2023-07-13T00:56:41;18.02;;;8.98;;
54921;SDS011;40824;45.116;21.296;2023-07-13T00:59:09;16.35;;;8.60;;
54921;SDS011;40824;45.116;21.296;2023-07-13T01:01:36;23.77;;;9.30;;
54921;SDS011;40824;45.116;21.296;2023-07-13T01:04:02;16.35;;;8.88;;
54921;SDS011;40824;45.116;21.296;2023-07-13T01:06:28;17.00;;;8.82;;
54921;SDS011;40824;45.116;21.296;2023-07-13T01:08:55;15.73;;;9.05;;
54921;SDS011;40824;45.116;21.296;2023-07-13T01:11:23;18.40;;;8.73;;
54921;SDS011;40824;45.116;21.296;2023-07-13T01:13:49;15.25;;;9.15;;
54921;SDS011;40824;45.116;21.296;2023-07-13T01:16:20;17.17;;;8.48;;
54921;SDS011;40824;45.116;21.296;2023-07-13T01:18:48;18.23;;;9.68;;
54921;SDS011;40824;45.116;21.296;2023-07-13T01:21:14;15.60;;;9.15;;
54921;SDS011;40824;45.116;21.296;2023-07-13T01:23:41;16.52;;;9.35;;
54921;SDS011;40824;45.116;21.296;2023-07-13T01:26:09;15.90;;;8.85;;
54921;SDS011;40824;45.116;21.296;2023-07-13T01:28:35;18.65;;;9.98;;
54921;SDS011;40824;45.116;21.296;2023-07-13T01:31:02;18.35;;;9.65;;
54921;SDS011;40824;45.116;21.296;2023-07-13T01:33:28;16.05;;;9.27;;
54921;SDS011;40824;45.116;21.296;2023-07-13T01:35:54;23.98;;;9.98;;
54921;SDS011;40824;45.116;21.296;2023-07-13T01:38:23;20.55;;;9.25;;
54921;SDS011;40824;45.116;21.296;2023-07-13T01:40:50;17.63;;;8.48;;
54921;SDS011;40824;45.116;21.296;2023-07-13T01:43:16;16.60;;;9.63;;
54921;SDS011;40824;45.116;21.296;2023-07-13T01:45:42;13.93;;;8.95;;
54921;SDS011;40824;45.116;21.296;2023-07-13T01:48:09;15.75;;;9.50;;
54921;SDS011;40824;45.116;21.296;2023-07-13T01:50:35;17.23;;;8.45;;
54921;SDS011;40824;45.116;21.296;2023-07-13T01:53:01;13.88;;;8.57;;
54921;SDS011;40824;45.116;21.296;2023-07-13T01:55:27;13.60;;;8.98;;
54921;SDS011;40824;45.116;21.296;2023-07-13T01:57:53;16.23;;;8.90;;
54921;SDS011;40824;45.116;21.296;2023-07-13T02:00:19;13.95;;;9.52;;
54921;SDS011;40824;45.116;21.296;2023-07-13T02:02:45;14.93;;;9.15;;
54921;SDS011;40824;45.116;21.296;2023-07-13T02:05:12;14.10;;;9.02;;
54921;SDS011;40824;45.116;21.296;2023-07-13T02:07:38;15.13;;;9.30;;
54921;SDS011;40824;45.116;21.296;2023-07-13T02:10:05;15.98;;;8.75;;
54921;SDS011;40824;45.116;21.296;2023-07-13T02:12:31;17.95;;;8.95;;
54921;SDS011;40824;45.116;21.296;2023-07-13T02:14:57;13.88;;;8.50;;
54921;SDS011;40824;45.116;21.296;2023-07-13T02:17:25;15.82;;;8.55;;
54921;SDS011;40824;45.116;21.296;2023-07-13T02:19:51;18.30;;;9.77;;
54921;SDS011;40824;45.116;21.296;2023-07-13T02:22:18;14.48;;;8.95;;
54921;SDS011;40824;45.116;21.296;2023-07-13T02:24:44;16.75;;;8.57;;
54921;SDS011;40824;45.116;21.296;2023-07-13T02:27:10;19.00;;;7.88;;
54921;SDS011;40824;45.116;21.296;2023-07-13T02:29:36;14.50;;;9.10;;
54921;SDS011;40824;45.116;21.296;2023-07-13T02:32:02;12.27;;;8.23;;
54921;SDS011;40824;45.116;21.296;2023-07-13T02:34:28;13.82;;;8.82;;
54921;SDS011;40824;45.116;21.296;2023-07-13T02:36:54;14.40;;;8.38;;
54921;SDS011;40824;45.116;21.296;2023-07-13T02:39:20;19.65;;;8.57;;
54921;SDS011;40824;45.116;21.296;2023-07-13T02:41:46;20.17;;;8.98;;
54921;SDS011;40824;45.116;21.296;2023-07-13T02:44:12;18.25;;;8.52;;
54921;SDS011;40824;45.116;21.296;2023-07-13T02:46:39;18.65;;;9.13;;
54921;SDS011;40824;45.116;21.296;2023-07-13T02:49:05;19.92;;;8.65;;
54921;SDS011;40824;45.116;21.296;2023-07-13T02:51:31;14.18;;;8.90;;
54921;SDS011;40824;45.116;21.296;2023-07-13T02:53:59;14.50;;;9.52;;
54921;SDS011;40824;45.116;21.296;2023-07-13T02:56:26;12.43;;;8.15;;
54921;SDS011;40824;45.116;21.296;2023-07-13T02:58:53;14.73;;;8.52;;
54921;SDS011;40824;45.116;21.296;2023-07-13T03:01:19;17.25;;;9.63;;
54921;SDS011;40824;45.116;21.296;2023-07-13T03:03:46;14.77;;;9.13;;
54921;SDS011;40824;45.116;21.296;2023-07-13T03:06:12;13.48;;;8.82;;
54921;SDS011;40824;45.116;21.296;2023-07-13T03:08:39;13.20;;;9.05;;
54921;SDS011;40824;45.116;21.296;2023-07-13T03:11:07;13.65;;;8.32;;
54921;SDS011;40824;45.116;21.296;2023-07-13T03:13:33;15.15;;;8.30;;
54921;SDS011;40824;45.116;21.296;2023-07-13T03:15:59;14.48;;;8.40;;
54921;SDS011;40824;45.116;21.296;2023-07-13T03:18:26;23.75;;;9.50;;
54921;SDS011;40824;45.116;21.296;2023-07-13T03:20:53;13.07;;;8.73;;
54921;SDS011;40824;45.116;21.296;2023-07-13T03:23:20;19.20;;;8.98;;
54921;SDS011;40824;45.116;21.296;2023-07-13T03:25:46;14.98;;;9.10;;
54921;SDS011;40824;45.116;21.296;2023-07-13T03:28:13;14.00;;;8.15;;
54921;SDS011;40824;45.116;21.296;2023-07-13T03:30:39;16.30;;;8.13;;
54921;SDS011;40824;45.116;21.296;2023-07-13T03:33:05;12.82;;;7.88;;
54921;SDS011;40824;45.116;21.296;2023-07-13T03:35:39;14.55;;;8.63;;
54921;SDS011;40824;45.116;21.296;2023-07-13T03:38:06;18.17;;;7.95;;
54921;SDS011;40824;45.116;21.296;2023-07-13T03:40:32;14.35;;;9.13;;
54921;SDS011;40824;45.116;21.296;2023-07-13T03:42:58;13.70;;;8.68;;
54921;SDS011;40824;45.116;21.296;2023-07-13T03:45:24;15.60;;;8.52;;
54921;SDS011;40824;45.116;21.296;2023-07-13T03:47:50;16.98;;;8.32;;
54921;SDS011;40824;45.116;21.296;2023-07-13T03:50:16;16.17;;;8.15;;
54921;SDS011;40824;45.116;21.296;2023-07-13T03:52:42;12.57;;;8.52;;
54921;SDS011;40824;45.116;21.296;2023-07-13T03:55:08;12.48;;;8.02;;
54921;SDS011;40824;45.116;21.296;2023-07-13T03:57:34;13.40;;;8.48;;
54921;SDS011;40824;45.116;21.296;2023-07-13T04:00:00;14.90;;;8.73;;
54921;SDS011;40824;45.116;21.296;2023-07-13T04:02:27;15.05;;;8.48;;
54921;SDS011;40824;45.116;21.296;2023-07-13T04:04:53;13.75;;;8.80;;
54921;SDS011;40824;45.116;21.296;2023-07-13T04:07:19;13.82;;;8.88;;
54921;SDS011;40824;45.116;21.296;2023-07-13T04:09:45;15.95;;;9.50;;
54921;SDS011;40824;45.116;21.296;2023-07-13T04:12:11;16.08;;;9.30;;
54921;SDS011;40824;45.116;21.296;2023-07-13T04:14:37;13.38;;;9.02;;
54921;SDS011;40824;45.116;21.296;2023-07-13T04:17:03;10.80;;;8.00;;
54921;SDS011;40824;45.116;21.296;2023-07-13T04:19:30;14.73;;;8.82;;
54921;SDS011;40824;45.116;21.296;2023-07-13T04:21:56;13.98;;;8.18;;
54921;SDS011;40824;45.116;21.296;2023-07-13T04:24:25;16.92;;;9.20;;
54921;SDS011;40824;45.116;21.296;2023-07-13T04:26:51;15.35;;;8.85;;
54921;SDS011;40824;45.116;21.296;2023-07-13T04:29:17;15.50;;;8.60;;
54921;SDS011;40824;45.116;21.296;2023-07-13T04:31:43;11.85;;;8.60;;
54921;SDS011;40824;45.116;21.296;2023-07-13T04:34:09;16.10;;;8.10;;
54921;SDS011;40824;45.116;21.296;2023-07-13T04:36:35;17.33;;;9.07;;
54921;SDS011;40824;45.116;21.296;2023-07-13T04:39:02;17.10;;;9.30;;
54921;SDS011;40824;45.116;21.296;2023-07-13T04:41:28;13.20;;;8.68;;
54921;SDS011;40824;45.116;21.296;2023-07-13T04:43:57;15.00;;;8.80;;
54921;SDS011;40824;45.116;21.296;2023-07-13T04:46:23;12.57;;;8.82;;
54921;SDS011;40824;45.116;21.296;2023-07-13T04:48:49;13.88;;;8.95;;
54921;SDS011;40824;45.116;21.296;2023-07-13T04:51:18;16.13;;;8.65;;
54921;SDS011;40824;45.116;21.296;2023-07-13T04:53:44;13.13;;;9.00;;
54921;SDS011;40824;45.116;21.296;2023-07-13T04:56:10;14.05;;;9.55;;
54921;SDS011;40824;45.116;21.296;2023-07-13T04:58:36;14.85;;;7.93;;
54921;SDS011;40824;45.116;21.296;2023-07-13T05:01:03;13.13;;;8.55;;
54921;SDS011;40824;45.116;21.296;2023-07-13T05:03:30;17.50;;;9.77;;
54921;SDS011;40824;45.116;21.296;2023-07-13T05:06:00;13.15;;;8.52;;
54921;SDS011;40824;45.116;21.296;2023-07-13T05:08:26;11.30;;;8.02;;
54921;SDS011;40824;45.116;21.296;2023-07-13T05:10:53;14.35;;;8.75;;
54921;SDS011;40824;45.116;21.296;2023-07-13T05:13:19;17.40;;;9.80;;
54921;SDS011;40824;45.116;21.296;2023-07-13T05:15:45;13.70;;;9.68;;
54921;SDS011;40824;45.116;21.296;2023-07-13T05:18:11;14.55;;;9.38;;
54921;SDS011;40824;45.116;21.296;2023-07-13T05:20:37;12.77;;;9.52;;
54921;SDS011;40824;45.116;21.296;2023-07-13T05:23:03;16.70;;;9.75;;
54921;SDS011;40824;45.116;21.296;2023-07-13T05:25:31;13.90;;;10.02;;
54921;SDS011;40824;45.116;21.296;2023-07-13T05:27:57;13.07;;;9.52;;
54921;SDS011;40824;45.116;21.296;2023-07-13T05:30:23;17.17;;;9.63;;
54921;SDS011;40824;45.116;21.296;2023-07-13T05:32:49;12.90;;;9.80;;
54921;SDS011;40824;45.116;21.296;2023-07-13T05:35:15;13.57;;;10.35;;
54921;SDS011;40824;45.116;21.296;2023-07-13T05:37:41;15.13;;;10.57;;
54921;SDS011;40824;45.116;21.296;2023-07-13T05:40:07;15.63;;;10.23;;
54921;SDS011;40824;45.116;21.296;2023-07-13T05:42:33;20.88;;;12.07;;
54921;SDS011;40824;45.116;21.296;2023-07-13T05:44:59;17.38;;;11.98;;
54921;SDS011;40824;45.116;21.296;2023-07-13T05:47:25;16.55;;;10.68;;
54921;SDS011;40824;45.116;21.296;2023-07-13T05:49:51;14.27;;;11.40;;
54921;SDS011;40824;45.116;21.296;2023-07-13T05:52:17;15.93;;;12.77;;
54921;SDS011;40824;45.116;21.296;2023-07-13T05:54:43;17.67;;;14.38;;
54921;SDS011;40824;45.116;21.296;2023-07-13T05:57:09;17.70;;;14.02;;
54921;SDS011;40824;45.116;21.296;2023-07-13T05:59:35;16.38;;;13.32;;
54921;SDS011;40824;45.116;21.296;2023-07-13T06:02:02;15.43;;;11.00;;
54921;SDS011;40824;45.116;21.296;2023-07-13T06:04:28;16.00;;;9.45;;
54921;SDS011;40824;45.116;21.296;2023-07-13T06:06:54;13.73;;;9.43;;
54921;SDS011;40824;45.116;21.296;2023-07-13T06:09:20;15.13;;;10.63;;
54921;SDS011;40824;45.116;21.296;2023-07-13T06:11:46;20.67;;;11.13;;
54921;SDS011;40824;45.116;21.296;2023-07-13T06:14:12;17.23;;;10.20;;
54921;SDS011;40824;45.116;21.296;2023-07-13T06:16:39;22.25;;;10.65;;
54921;SDS011;40824;45.116;21.296;2023-07-13T06:19:06;16.88;;;10.27;;
54921;SDS011;40824;45.116;21.296;2023-07-13T06:21:32;15.27;;;11.10;;
54921;SDS011;40824;45.116;21.296;2023-07-13T06:23:58;16.05;;;11.23;;
54921;SDS011;40824;45.116;21.296;2023-07-13T06:26:24;16.42;;;10.63;;
54921;SDS011;40824;45.116;21.296;2023-07-13T06:28:50;16.48;;;11.02;;
54921;SDS011;40824;45.116;21.296;2023-07-13T06:31:16;19.75;;;11.32;;
54921;SDS011;40824;45.116;21.296;2023-07-13T06:33:43;13.00;;;10.63;;
54921;SDS011;40824;45.116;21.296;2023-07-13T06:36:09;13.73;;;10.70;;
54921;SDS011;40824;45.116;21.296;2023-07-13T06:38:35;15.82;;;11.27;;
54921;SDS011;40824;45.116;21.296;2023-07-13T06:41:01;15.18;;;10.30;;
54921;SDS011;40824;45.116;21.296;2023-07-13T06:43:28;14.73;;;10.15;;
54921;SDS011;40824;45.116;21.296;2023-07-13T06:45:55;12.48;;;10.20;;
54921;SDS011;40824;45.116;21.296;2023-07-13T06:48:21;16.23;;;10.85;;
54921;SDS011;40824;45.116;21.296;2023-07-13T06:50:48;13.85;;;9.80;;
54921;SDS011;40824;45.116;21.296;2023-07-13T06:53:14;15.93;;;10.25;;
54921;SDS011;40824;45.116;21.296;2023-07-13T06:55:43;12.38;;;9.77;;
54921;SDS011;40824;45.116;21.296;2023-07-13T06:58:09;17.88;;;11.18;;
54921;SDS011;40824;45.116;21.296;2023-07-13T07:00:35;13.77;;;10.18;;
54921;SDS011;40824;45.116;21.296;2023-07-13T07:03:01;19.30;;;10.43;;
54921;SDS011;40824;45.116;21.296;2023-07-13T07:05:27;10.18;;;8.63;;
54921;SDS011;40824;45.116;21.296;2023-07-13T07:07:54;11.77;;;9.05;;
54921;SDS011;40824;45.116;21.296;2023-07-13T07:10:23;10.98;;;7.97;;
54921;SDS011;40824;45.116;21.296;2023-07-13T07:12:49;11.25;;;8.85;;
54921;SDS011;40824;45.116;21.296;2023-07-13T07:15:17;18.40;;;9.93;;
54921;SDS011;40824;45.116;21.296;2023-07-13T07:17:44;12.57;;;8.75;;
54921;SDS011;40824;45.116;21.296;2023-07-13T07:20:10;13.50;;;7.75;;
54921;SDS011;40824;45.116;21.296;2023-07-13T07:22:36;12.60;;;8.38;;
54921;SDS011;40824;45.116;21.296;2023-07-13T07:25:03;13.75;;;8.68;;
54921;SDS011;40824;45.116;21.296;2023-07-13T07:27:30;10.60;;;7.97;;
54921;SDS011;40824;45.116;21.296;2023-07-13T07:29:56;11.98;;;8.18;;
54921;SDS011;40824;45.116;21.296;2023-07-13T07:32:22;12.57;;;7.90;;
54921;SDS011;40824;45.116;21.296;2023-07-13T07:34:48;11.05;;;8.75;;
54921;SDS011;40824;45.116;21.296;2023-07-13T07:37:15;12.82;;;9.25;;
54921;SDS011;40824;45.116;21.296;2023-07-13T07:39:42;10.32;;;8.23;;
54921;SDS011;40824;45.116;21.296;2023-07-13T07:42:08;11.70;;;9.65;;
54921;SDS011;40824;45.116;21.296;2023-07-13T07:44:35;11.30;;;7.90;;
54921;SDS011;40824;45.116;21.296;2023-07-13T07:47:01;13.13;;;8.38;;
54921;SDS011;40824;45.116;21.296;2023-07-13T07:49:27;15.00;;;8.82;;
54921;SDS011;40824;45.116;21.296;2023-07-13T07:51:53;15.45;;;8.70;;
54921;SDS011;40824;45.116;21.296;2023-07-13T07:54:19;16.40;;;8.32;;
54921;SDS011;40824;45.116;21.296;2023-07-13T07:56:45;9.73;;;7.63;;
54921;SDS011;40824;45.116;21.296;2023-07-13T07:59:11;14.10;;;7.80;;
54921;SDS011;40824;45.116;21.296;2023-07-13T08:01:37;13.23;;;7.45;;
54921;SDS011;40824;45.116;21.296;2023-07-13T08:04:04;21.52;;;7.78;;
54921;SDS011;40824;45.116;21.296;2023-07-13T08:06:31;12.70;;;7.28;;
54921;SDS011;40824;45.116;21.296;2023-07-13T08:08:58;10.07;;;8.38;;
54921;SDS011;40824;45.116;21.296;2023-07-13T08:11:24;13.23;;;8.68;;
54921;SDS011;40824;45.116;21.296;2023-07-13T08:13:50;14.18;;;7.95;;
54921;SDS011;40824;45.116;21.296;2023-07-13T08:16:16;13.50;;;7.63;;
54921;SDS011;40824;45.116;21.296;2023-07-13T08:18:42;17.15;;;8.52;;
54921;SDS011;40824;45.116;21.296;2023-07-13T08:21:08;9.45;;;7.70;;
54921;SDS011;40824;45.116;21.296;2023-07-13T08:23:35;13.57;;;7.70;;
54921;SDS011;40824;45.116;21.296;2023-07-13T08:26:01;13.02;;;8.52;;
54921;SDS011;40824;45.116;21.296;2023-07-13T08:28:28;13.50;;;8.00;;
54921;SDS011;40824;45.116;21.296;2023-07-13T08:30:54;15.55;;;9.20;;
54921;SDS011;40824;45.116;21.296;2023-07-13T08:33:21;18.45;;;7.97;;
54921;SDS011;40824;45.116;21.296;2023-07-13T08:35:50;10.68;;;7.88;;
54921;SDS011;40824;45.116;21.296;2023-07-13T08:38:17;11.15;;;8.52;;
54921;SDS011;40824;45.116;21.296;2023-07-13T08:40:43;11.93;;;8.65;;
54921;SDS011;40824;45.116;21.296;2023-07-13T08:43:13;12.60;;;8.50;;
54921;SDS011;40824;45.116;21.296;2023-07-13T08:48:11;13.73;;;7.78;;
54921;SDS011;40824;45.116;21.296;2023-07-13T08:50:43;12.50;;;8.18;;
54921;SDS011;40824;45.116;21.296;2023-07-13T08:53:12;14.65;;;8.95;;
54921;SDS011;40824;45.116;21.296;2023-07-13T08:55:39;10.63;;;9.20;;
54921;SDS011;40824;45.116;21.296;2023-07-13T08:58:09;12.68;;;8.48;;
54921;SDS011;40824;45.116;21.296;2023-07-13T09:00:38;14.70;;;8.65;;
54921;SDS011;40824;45.116;21.296;2023-07-13T09:03:34;14.73;;;8.55;;
54921;SDS011;40824;45.116;21.296;2023-07-13T09:05:59;16.00;;;9.20;;
54921;SDS011;40824;45.116;21.296;2023-07-13T09:09:02;13.57;;;8.25;;
54921;SDS011;40824;45.116;21.296;2023-07-13T09:16:34;12.25;;;8.02;;
54921;SDS011;40824;45.116;21.296;2023-07-13T09:19:02;16.77;;;8.88;;
54921;SDS011;40824;45.116;21.296;2023-07-13T09:21:31;15.27;;;9.25;;
54921;SDS011;40824;45.116;21.296;2023-07-13T09:24:17;15.95;;;9.05;;
54921;SDS011;40824;45.116;21.296;2023-07-13T09:26:47;12.43;;;8.32;;
54921;SDS011;40824;45.116;21.296;2023-07-13T09:29:32;15.27;;;8.25;;
54921;SDS011;40824;45.116;21.296;2023-07-13T09:32:03;15.02;;;9.27;;
54921;SDS011;40824;45.116;21.296;2023-07-13T09:34:32;13.63;;;8.23;;
54921;SDS011;40824;45.116;21.296;2023-07-13T09:36:58;14.05;;;8.27;;
54921;SDS011;40824;45.116;21.296;2023-07-13T09:39:35;13.50;;;8.70;;
54921;SDS011;40824;45.116;21.296;2023-07-13T09:42:07;13.02;;;9.02;;
54921;SDS011;40824;45.116;21.296;2023-07-13T09:44:44;14.88;;;8.55;;
54921;SDS011;40824;45.116;21.296;2023-07-13T09:47:17;12.73;;;8.48;;
54921;SDS011;40824;45.116;21.296;2023-07-13T09:49:44;14.65;;;9.05;;
54921;SDS011;40824;45.116;21.296;2023-07-13T09:52:12;12.45;;;8.25;;
54921;SDS011;40824;45.116;21.296;2023-07-13T09:54:44;14.55;;;8.55;;
54921;SDS011;40824;45.116;21.296;2023-07-13T09:57:16;15.75;;;8.85;;
54921;SDS011;40824;45.116;21.296;2023-07-13T09:59:44;11.13;;;8.65;;
54921;SDS011;40824;45.116;21.296;2023-07-13T10:05:06;14.15;;;8.27;;
54921;SDS011;40824;45.116;21.296;2023-07-13T10:07:37;12.98;;;8.85;;
54921;SDS011;40824;45.116;21.296;2023-07-13T10:10:12;11.82;;;8.52;;
54921;SDS011;40824;45.116;21.296;2023-07-13T10:12:38;13.55;;;8.52;;
54921;SDS011;40824;45.116;21.296;2023-07-13T10:15:06;15.38;;;8.25;;
54921;SDS011;40824;45.116;21.296;2023-07-13T10:17:38;15.38;;;8.68;;
54921;SDS011;40824;45.116;21.296;2023-07-13T10:20:05;16.00;;;8.55;;
54921;SDS011;40824;45.116;21.296;2023-07-13T10:22:51;18.15;;;9.85;;
54921;SDS011;40824;45.116;21.296;2023-07-13T10:25:19;13.73;;;9.20;;
54921;SDS011;40824;45.116;21.296;2023-07-13T10:27:47;14.55;;;9.25;;
54921;SDS011;40824;45.116;21.296;2023-07-13T10:30:17;14.43;;;7.53;;
54921;SDS011;40824;45.116;21.296;2023-07-13T10:32:45;14.77;;;8.10;;
54921;SDS011;40824;45.116;21.296;2023-07-13T10:35:12;17.52;;;9.25;;
54921;SDS011;40824;45.116;21.296;2023-07-13T10:37:49;13.63;;;7.78;;
54921;SDS011;40824;45.116;21.296;2023-07-13T10:40:22;17.13;;;7.50;;
54921;SDS011;40824;45.116;21.296;2023-07-13T10:42:50;15.48;;;8.50;;
54921;SDS011;40824;45.116;21.296;2023-07-13T10:45:18;14.57;;;8.25;;
54921;SDS011;40824;45.116;21.296;2023-07-13T10:47:45;11.35;;;7.88;;
54921;SDS011;40824;45.116;21.296;2023-07-13T10:50:22;14.55;;;6.97;;
54921;SDS011;40824;45.116;21.296;2023-07-13T10:52:53;10.77;;;7.47;;
54921;SDS011;40824;45.116;21.296;2023-07-13T10:55:37;11.15;;;7.78;;
54921;SDS011;40824;45.116;21.296;2023-07-13T10:58:14;12.57;;;7.90;;
54921;SDS011;40824;45.116;21.296;2023-07-13T11:00:48;15.75;;;7.88;;
54921;SDS011;40824;45.116;21.296;2023-07-13T11:03:16;13.65;;;7.85;;
54921;SDS011;40824;45.116;21.296;2023-07-13T11:05:43;11.43;;;6.80;;
54921;SDS011;40824;45.116;21.296;2023-07-13T11:08:16;10.88;;;7.85;;
54921;SDS011;40824;45.116;21.296;2023-07-13T11:10:52;14.55;;;7.35;;
54921;SDS011;40824;45.116;21.296;2023-07-13T11:16:14;11.02;;;6.75;;
54921;SDS011;40824;45.116;21.296;2023-07-13T11:21:27;12.65;;;7.88;;
54921;SDS011;40824;45.116;21.296;2023-07-13T11:26:37;13.73;;;7.68;;
54921;SDS011;40824;45.116;21.296;2023-07-13T11:31:52;9.95;;;6.88;;
54921;SDS011;40824;45.116;21.296;2023-07-13T11:34:27;10.93;;;6.70;;
54921;SDS011;40824;45.116;21.296;2023-07-13T11:36:55;13.07;;;7.32;;
54921;SDS011;40824;45.116;21.296;2023-07-13T11:41:52;10.57;;;7.28;;
54921;SDS011;40824;45.116;21.296;2023-07-13T11:44:21;12.93;;;7.85;;
54921;SDS011;40824;45.116;21.296;2023-07-13T11:46:49;12.70;;;7.95;;
54921;SDS011;40824;45.116;21.296;2023-07-13T11:49:16;13.70;;;8.25;;
54921;SDS011;40824;45.116;21.296;2023-07-13T11:51:43;9.88;;;7.55;;
54921;SDS011;40824;45.116;21.296;2023-07-13T11:56:55;12.15;;;7.65;;
54921;SDS011;40824;45.116;21.296;2023-07-13T11:59:25;12.20;;;7.65;;
54921;SDS011;40824;45.116;21.296;2023-07-13T12:01:52;13.93;;;7.25;;
54921;SDS011;40824;45.116;21.296;2023-07-13T12:04:27;19.65;;;6.70;;
54921;SDS011;40824;45.116;21.296;2023-07-13T12:07:04;12.32;;;7.63;;
54921;SDS011;40824;45.116;21.296;2023-07-13T12:09:32;10.88;;;7.70;;
54921;SDS011;40824;45.116;21.296;2023-07-13T12:12:08;12.18;;;7.07;;
54921;SDS011;40824;45.116;21.296;2023-07-13T12:14:35;12.68;;;7.47;;
54921;SDS011;40824;45.116;21.296;2023-07-13T12:17:03;21.23;;;8.18;;
54921;SDS011;40824;45.116;21.296;2023-07-13T12:22:00;9.40;;;6.60;;
54921;SDS011;40824;45.116;21.296;2023-07-13T12:24:26;10.65;;;6.88;;
54921;SDS011;40824;45.116;21.296;2023-07-13T12:27:00;11.70;;;7.07;;
54921;SDS011;40824;45.116;21.296;2023-07-13T12:29:26;11.30;;;6.65;;
54921;SDS011;40824;45.116;21.296;2023-07-13T12:31:52;14.13;;;6.97;;
54921;SDS011;40824;45.116;21.296;2023-07-13T12:34:22;14.10;;;7.00;;
54921;SDS011;40824;45.116;21.296;2023-07-13T12:36:52;11.00;;;7.10;;
54921;SDS011;40824;45.116;21.296;2023-07-13T12:41:48;17.23;;;6.97;;
54921;SDS011;40824;45.116;21.296;2023-07-13T12:44:16;14.07;;;7.07;;
54921;SDS011;40824;45.116;21.296;2023-07-13T12:46:56;10.45;;;6.90;;
54921;SDS011;40824;45.116;21.296;2023-07-13T12:49:29;13.85;;;7.18;;
54921;SDS011;40824;45.116;21.296;2023-07-13T12:52:02;8.10;;;6.20;;
54921;SDS011;40824;45.116;21.296;2023-07-13T12:54:29;11.07;;;7.15;;
54921;SDS011;40824;45.116;21.296;2023-07-13T12:56:56;12.07;;;6.65;;
54921;SDS011;40824;45.116;21.296;2023-07-13T12:59:29;13.18;;;6.45;;
54921;SDS011;40824;45.116;21.296;2023-07-13T13:01:58;18.23;;;6.65;;
54921;SDS011;40824;45.116;21.296;2023-07-13T13:04:30;18.15;;;6.63;;
54921;SDS011;40824;45.116;21.296;2023-07-13T13:07:03;12.35;;;6.75;;
54921;SDS011;40824;45.116;21.296;2023-07-13T13:09:29;11.38;;;6.57;;
54921;SDS011;40824;45.116;21.296;2023-07-13T13:11:58;12.50;;;6.25;;
54921;SDS011;40824;45.116;21.296;2023-07-13T13:14:24;12.23;;;6.78;;
54921;SDS011;40824;45.116;21.296;2023-07-13T13:16:51;14.93;;;7.10;;
54921;SDS011;40824;45.116;21.296;2023-07-13T13:19:21;11.52;;;6.88;;
54921;SDS011;40824;45.116;21.296;2023-07-13T13:21:48;12.82;;;7.55;;
54921;SDS011;40824;45.116;21.296;2023-07-13T13:24:20;11.88;;;6.80;;
54921;SDS011;40824;45.116;21.296;2023-07-13T13:26:46;15.32;;;7.85;;
54921;SDS011;40824;45.116;21.296;2023-07-13T13:29:17;9.60;;;7.40;;
54921;SDS011;40824;45.116;21.296;2023-07-13T13:31:44;11.77;;;6.72;;
54921;SDS011;40824;45.116;21.296;2023-07-13T13:34:11;16.85;;;7.07;;
54921;SDS011;40824;45.116;21.296;2023-07-13T13:36:38;15.02;;;7.80;;
54921;SDS011;40824;45.116;21.296;2023-07-13T13:41:41;14.10;;;6.97;;
54921;SDS011;40824;45.116;21.296;2023-07-13T13:44:09;18.38;;;7.32;;
54921;SDS011;40824;45.116;21.296;2023-07-13T13:46:35;18.63;;;6.55;;
54921;SDS011;40824;45.116;21.296;2023-07-13T13:49:02;12.63;;;6.78;;
54921;SDS011;40824;45.116;21.296;2023-07-13T13:51:28;14.95;;;6.97;;
54921;SDS011;40824;45.116;21.296;2023-07-13T13:53:56;13.23;;;6.60;;
54921;SDS011;40824;45.116;21.296;2023-07-13T13:56:22;11.23;;;6.55;;
54921;SDS011;40824;45.116;21.296;2023-07-13T13:58:48;11.82;;;7.13;;
54921;SDS011;40824;45.116;21.296;2023-07-13T14:01:19;12.15;;;6.68;;
54921;SDS011;40824;45.116;21.296;2023-07-13T14:03:46;13.77;;;7.15;;
54921;SDS011;40824;45.116;21.296;2023-07-13T14:06:16;10.80;;;5.78;;
54921;SDS011;40824;45.116;21.296;2023-07-13T14:08:43;9.38;;;6.30;;
54921;SDS011;40824;45.116;21.296;2023-07-13T14:11:16;11.23;;;7.30;;
54921;SDS011;40824;45.116;21.296;2023-07-13T14:13:43;14.30;;;6.80;;
54921;SDS011;40824;45.116;21.296;2023-07-13T14:16:19;14.93;;;7.80;;
54921;SDS011;40824;45.116;21.296;2023-07-13T14:18:46;12.32;;;7.53;;
54921;SDS011;40824;45.116;21.296;2023-07-13T14:21:15;11.23;;;6.50;;
54921;SDS011;40824;45.116;21.296;2023-07-13T14:23:43;12.85;;;6.68;;
54921;SDS011;40824;45.116;21.296;2023-07-13T14:26:13;19.10;;;7.13;;
54921;SDS011;40824;45.116;21.296;2023-07-13T14:28:43;12.93;;;7.22;;
54921;SDS011;40824;45.116;21.296;2023-07-13T14:31:13;14.57;;;7.03;;
54921;SDS011;40824;45.116;21.296;2023-07-13T14:33:39;17.40;;;7.47;;
54921;SDS011;40824;45.116;21.296;2023-07-13T14:36:20;12.02;;;7.60;;
54921;SDS011;40824;45.116;21.296;2023-07-13T14:38:47;13.93;;;7.35;;
54921;SDS011;40824;45.116;21.296;2023-07-13T14:41:13;14.02;;;7.25;;
54921;SDS011;40824;45.116;21.296;2023-07-13T14:43:39;14.20;;;7.30;;
54921;SDS011;40824;45.116;21.296;2023-07-13T14:46:07;14.93;;;7.95;;
54921;SDS011;40824;45.116;21.296;2023-07-13T14:48:38;13.63;;;7.38;;
54921;SDS011;40824;45.116;21.296;2023-07-13T14:51:04;10.45;;;7.05;;
54921;SDS011;40824;45.116;21.296;2023-07-13T14:53:31;15.32;;;7.72;;
54921;SDS011;40824;45.116;21.296;2023-07-13T14:55:57;12.52;;;7.75;;
54921;SDS011;40824;45.116;21.296;2023-07-13T14:58:23;12.73;;;7.80;;